Portland, Oregon
Traffic Map
Current Weather Conditions
Portland, Oregon
Clear
Clear
98°
Feels Like: 98°
Wind Chill: 98° Ceiling: Unl
Heat Index: 98° Visibility: 10mi
Dew Point: 39° Wind: 15mph
Humidity: 13% Direction: 70° (ENE)
Pressure: 29.93in Gusts: 21mph
Raw Report DataKPDX 242353Z 07013G18KT 10SM CLR 37/04 A2993 RMK AO2 SLP136 T03670039 10367 20267 56015
Traffic Incident Summary
Active as of:
Severity:
Category:
InformationThere was an issue retrieving the traffic information for this location. Please try a different location or try again shortly.
Advertisements
Track Severe Weather on mobile